• Join FlightAware (Why Join?)
  • Login
  • US Flag 
12:00PM EDT


 

Airport Tracker/Info


-or-


 

Live Flight TrackerFlight Track Log ✈ SKW6373 ✈ 27-Apr-2013 ✈ KDEN - KMRY

Flight Track Log - Related Links

Times and Time Zones

All times are in EDT time to prevent confusion due to time zone crossing. See the SKW6373 flight status page for this flight to view local times or setup timezone preferences in your user account.

Time Position Orientation Groundspeed Altitude Reporting Facility
EDT Latitude Longitude Course Direction KTS MPH feet Rate Location/Type
09:23PM 39.8500 -104.7667 270° West 208 239 6,600  Level Denver TRACON
09:24PM 39.8833 -104.8333 303° West 260 299 7,900 1,860 Climbing Denver TRACON
09:25PM 39.9167 -104.9167 298° West 285 328 10,200 2,100 Climbing Denver TRACON
09:25PM 39.9500 -105.0167 294° West 303 349 11,900 1,740 Climbing Denver TRACON
09:26PM 39.8500 -105.2946 270° West  Level FlightAware Approximate
09:26PM 39.9400 -105.0419 243° Southwest 303 349 12,400  Level Denver Center
09:27PM 39.8501 -105.4516 270° West  Level FlightAware Approximate
09:27PM 39.9247 -105.1694 261° West 334 384 13,700  Level Denver Center
09:28PM 39.8500 -105.6086 270° West  Level FlightAware Approximate
09:28PM 39.9097 -105.2956 261° West 353 406 15,400  Level Denver Center
09:29PM 39.8950 -105.4239 262° West 358 412 17,000 1,380 Climbing Denver Center
09:30PM 39.8808 -105.5642 263° West 364 419 18,300 1,200 Climbing Denver Center
09:31PM 39.8669 -105.6989 262° West 378 435 19,500 1,020 Climbing Denver Center
09:32PM 39.8533 -105.8353 263° West 383 441 20,500 840 Climbing Denver Center
09:33PM 39.8397 -105.9742 263° West 385 443 21,300 720 Climbing Denver Center
09:34PM 39.8244 -106.1186 262° West 399 459 22,000 720 Climbing Denver Center
09:35PM 39.8094 -106.2667 263° West 407 468 22,800 840 Climbing Denver Center
09:36PM 39.7942 -106.4142 262° West 409 471 23,800 960 Climbing Denver Center
09:37PM 39.7792 -106.5619 263° West 408 470 24,800 780 Climbing Denver Center
09:38PM 39.7642 -106.7069 262° West 408 470 25,500 660 Climbing Denver Center
09:39PM 39.7475 -106.8539 262° West 414 476 26,200 600 Climbing Denver Center
09:40PM 39.7283 -107.0314 262° West 420 483 26,800 480 Climbing Denver Center
09:41PM 39.7114 -107.1803 262° West 421 484 27,300 480 Climbing Denver Center
09:42PM 39.6936 -107.3353 262° West 423 487 27,900 600 Climbing Denver Center
09:43PM 39.6769 -107.4806 262° West 425 489 28,600 660 Climbing Denver Center
09:44PM 39.6569 -107.6464 261° West 419 482 29,400 600 Climbing Denver Center
09:45PM 39.6375 -107.8119 261° West 417 480 30,000 540 Climbing Denver Center
09:46PM 39.6169 -107.9803 261° West 422 486 30,600 480 Climbing Denver Center
09:47PM 39.6000 -108.1242 261° West 422 486 31,000 420 Climbing Denver Center
09:49PM 39.5831 -108.2683 261° West 421 484 31,500 480 Climbing Denver Center
09:50PM 39.5619 -108.4356 261° West 412 474 32,000 240 Climbing Denver Center
09:51PM 39.5439 -108.5814 261° West 422 486 32,000  Level Denver Center
09:52PM 39.5247 -108.7328 261° West 436 502 32,000  Level Denver Center
09:53PM 39.5014 -108.9108 260° West 442 509 32,000  Level Denver Center
09:54PM 39.4825 -109.0600 261° West 434 499 32,000  Level Denver Center
09:55PM 39.4631 -109.2069 260° West 432 497 32,000  Level Denver Center
09:56PM 39.4414 -109.3778 261° West 430 495 32,000  Level Denver Center
09:56PM 39.4317 -109.4511 260° West 430 495 32,000  Level Salt Lake Center
09:57PM 39.4125 -109.5975 260° West 431 496 32,000  Level Salt Lake Center
09:58PM 39.3989 -109.6939 260° West 430 495 32,000  Level Denver Center
09:59PM 39.3792 -109.8406 260° West 430 495 32,000  Level Denver Center
09:59PM 39.3686 -109.9139 259° West 433 498 32,000  Level Salt Lake Center
10:00PM 39.3497 -110.0586 260° West 428 493 32,000  Level Salt Lake Center
10:01PM 39.3297 -110.2047 260° West 432 497 32,000  Level Salt Lake Center
10:02PM 39.3050 -110.3733 259° West 429 494 32,000  Level Salt Lake Center
10:03PM 39.2947 -110.4458 260° West 430 495 32,000  Level Denver Center
10:04PM 39.2711 -110.6158 260° West 432 497 32,000  Level Denver Center
10:04PM 39.2608 -110.6886 260° West 431 496 32,000  Level Salt Lake Center
10:05PM 39.2400 -110.8336 260° West 430 495 32,000  Level Salt Lake Center
10:06PM 39.2175 -110.9783 259° West 430 495 32,000  Level Salt Lake Center
10:07PM 39.1919 -111.1481 259° West 432 497 32,000  Level Salt Lake Center
10:08PM 39.1739 -111.2769 260° West 430 495 32,000  Level Salt Lake Center
10:09PM 39.1475 -111.4586 259° West 432 497 32,000  Level Salt Lake Center
10:10PM 39.1236 -111.6078 258° West 429 494 32,000  Level Salt Lake Center
10:11PM 39.1011 -111.7581 259° West 429 494 32,000  Level Salt Lake Center
10:12PM 39.0778 -111.9089 259° West 432 497 32,000  Level Salt Lake Center
10:13PM 39.0542 -112.0600 259° West 433 498 32,000  Level Salt Lake Center
10:14PM 39.0306 -112.2122 259° West 435 501 32,000  Level Salt Lake Center
10:15PM 39.0058 -112.3644 258° West 436 502 32,000  Level Salt Lake Center
10:16PM 38.9803 -112.5164 258° West 437 503 32,000  Level Salt Lake Center
10:17PM 38.9564 -112.6708 259° West 441 507 32,000  Level Salt Lake Center
10:19PM 38.9314 -112.8228 258° West 438 504 32,000  Level Salt Lake Center
10:20PM 38.9017 -113.0047 258° West 437 503 32,000  Level Salt Lake Center
10:21PM 38.8758 -113.1547 258° West 434 499 32,000  Level Salt Lake Center
10:22PM 38.8503 -113.3069 258° West 437 503 32,000  Level Salt Lake Center
10:23PM 38.8247 -113.4600 258° West 440 506 32,000  Level Salt Lake Center
10:24PM 38.7986 -113.6131 258° West 441 507 32,000  Level Salt Lake Center
10:25PM 38.7722 -113.7661 258° West 442 509 32,000  Level Salt Lake Center
10:26PM 38.7453 -113.9200 257° West 444 511 32,000  Level Salt Lake Center
10:27PM 38.7192 -114.0711 258° West 439 505 32,000  Level Salt Lake Center
10:28PM 38.6917 -114.2244 257° West 442 509 32,000  Level Salt Lake Center
10:29PM 38.6597 -114.4069 257° West 440 506 32,000  Level Salt Lake Center
10:30PM 38.6311 -114.5611 257° West 446 513 32,000  Level Salt Lake Center
10:31PM 38.6033 -114.7150 257° West 448 516 32,000  Level Salt Lake Center
10:32PM 38.5756 -114.8669 257° West 442 509 32,000  Level Salt Lake Center
10:33PM 38.5472 -115.0186 257° West 441 507 32,000  Level Salt Lake Center
10:34PM 38.5186 -115.1731 257° West 448 516 32,000  Level Salt Lake Center
10:35PM 38.4900 -115.3244 256° West 442 509 32,000  Level Salt Lake Center
10:36PM 38.4594 -115.4939 257° West 444 511 32,000  Level Salt Lake Center
10:37PM 38.4294 -115.6458 256° West 441 507 32,000  Level Salt Lake Center
10:38PM 38.4003 -115.7986 256° West 443 510 32,000  Level Salt Lake Center
10:39PM 38.3714 -115.9506 256° West 441 507 32,000  Level Salt Lake Center
10:40PM 38.3422 -116.1022 256° West 440 506 32,000  Level Salt Lake Center
10:41PM 38.3119 -116.2542 256° West 442 509 32,000  Level Salt Lake Center
10:42PM 38.2811 -116.4067 256° West 444 511 32,000  Level Oakland Center
10:43PM 38.2511 -116.5611 256° West 448 516 32,000  Level Oakland Center
10:44PM 38.2197 -116.7136 255° West 447 514 32,000  Level Oakland Center
10:45PM 38.1892 -116.8669 256° West 448 516 32,000  Level Oakland Center
10:46PM 38.1522 -117.0514 256° West 448 516 32,000  Level Salt Lake Center
10:47PM 38.1250 -117.1869 256° West 446 513 32,000  Level Salt Lake Center
10:48PM 38.0792 -117.3336 248° West 448 516 32,000  Level Salt Lake Center
10:49PM 38.0258 -117.4767 245° Southwest 447 514 32,000  Level Salt Lake Center
10:50PM 37.9725 -117.6186 245° Southwest 445 512 32,000  Level Oakland Center
10:51PM 37.9189 -117.7594 244° Southwest 446 513 32,000 -180 Level Oakland Center
10:52PM 37.8647 -117.9019 244° Southwest 448 516 31,700 -660 Descending Oakland Center
10:53PM 37.8097 -118.0472 244° Southwest 456 525 30,700 -1,020 Descending Oakland Center
10:54PM 37.7522 -118.1972 244° Southwest 469 540 29,700 -1,020 Descending Oakland Center
10:55PM 37.6939 -118.3478 244° Southwest 474 545 28,700 -1,020 Descending Oakland Center
10:56PM 37.6372 -118.4944 244° Southwest 469 540 27,700 -1,020 Descending Oakland Center
10:57PM 37.5814 -118.6381 244° Southwest 457 526 26,700 -1,140 Descending Oakland Center
10:58PM 37.5128 -118.8106 243° Southwest 467 537 25,500 -1,140 Descending Oakland Center
10:59PM 37.4589 -118.9492 244° Southwest 473 544 24,500 -780 Descending Oakland Center
11:00PM 37.4006 -119.0947 243° Southwest 469 540 24,000 -300 Descending Oakland Center
11:01PM 37.3478 -119.2414 246° West 463 533 24,000  Level Oakland Center
11:02PM 37.2917 -119.3800 243° Southwest 447 514 24,000  Level Oakland Center
11:03PM 37.2347 -119.5175 243° Southwest 446 513 24,000  Level Oakland Center
11:04PM 37.1778 -119.6567 243° Southwest 447 514 24,000  Level Oakland Center
11:05PM 37.1208 -119.7956 243° Southwest 452 520 24,000  Level Oakland Center
11:06PM 37.0642 -119.9361 243° Southwest 452 520 24,000  Level Oakland Center
11:07PM 36.9950 -120.1053 243° Southwest 457 526 24,000  Level Oakland Center
11:08PM 36.9361 -120.2425 242° Southwest 455 524 24,000  Level Oakland Center
11:09PM 36.8778 -120.3831 243° Southwest 458 527 24,000 -1,140 Level Oakland Center
11:10PM 36.8200 -120.5242 243° Southwest 454 522 21,800 -2,580 Descending Oakland Center
11:11PM 36.7672 -120.6528 243° Southwest 435 501 18,800 -2,820 Descending Oakland Center
11:12PM 36.7275 -120.7847 249° West 426 490 16,100 -2,760 Descending Oakland Center
11:13PM 36.7194 -120.9156 266° West 383 441 13,300 -2,700 Descending Oakland Center
11:14PM 36.7097 -121.0489 265° West 386 444 10,700 -1,680 Descending Oakland Center
11:15PM 36.6994 -121.1739 264° West 373 429 10,000 -420 Descending Oakland Center
11:16PM 36.6906 -121.2853 264° West 340 391 9,900 -600 Descending Oakland Center
11:17PM 36.6822 -121.3844 264° West 303 349 8,900 -1,260 Descending Oakland Center
11:18PM 36.6733 -121.4783 263° West 286 329 7,400 -960 Descending Oakland Center
11:19PM 36.6656 -121.5642 264° West 265 305 7,000 -240 Descending Oakland Center
11:20PM 36.6625 -121.6614 268° West 245 282 7,000 -120 Level Oakland Center
11:21PM 36.6667 -121.7000 278° West 231 266 6,900 -720 Descending Northern Cal TRACON
11:22PM 36.6833 -121.7833 284° West 299 344 5,900 -1,320 Descending Northern Cal TRACON
11:23PM 36.7000 -121.8500 287° West 197 227 4,300 -1,500 Descending Northern Cal TRACON
11:24PM 36.7000 -121.9167 270° West 189 217 3,000 -660 Descending Northern Cal TRACON
11:25PM 36.7167 -121.9833 287° West 185 213 3,000  Level Northern Cal TRACON